createdAt,value
2023-03-14T00:01:01.140Z,30.60
2023-03-14T00:03:29.563Z,34.17
2023-03-14T00:05:56.399Z,29.95
2023-03-14T00:08:24.756Z,33.70
2023-03-14T00:10:51.649Z,31.50
2023-03-14T00:13:18.452Z,23.42
2023-03-14T00:15:45.431Z,25.35
2023-03-14T00:18:12.329Z,21.73
2023-03-14T00:20:39.285Z,25.08
2023-03-14T00:23:06.172Z,30.58
2023-03-14T00:25:33.424Z,21.95
2023-03-14T00:28:00.309Z,14.88
2023-03-14T00:30:27.322Z,18.23
2023-03-14T00:32:54.434Z,15.75
2023-03-14T00:35:23.508Z,16.88
2023-03-14T00:37:50.376Z,11.75
2023-03-14T00:40:17.817Z,15.07
2023-03-14T00:42:44.800Z,15.45
2023-03-14T00:45:11.793Z,11.80
2023-03-14T00:47:38.671Z,11.18
2023-03-14T00:50:06.105Z,13.30
2023-03-14T00:52:33.328Z,14.02
2023-03-14T00:55:00.296Z,12.13
2023-03-14T00:57:27.381Z,12.13
2023-03-14T00:59:54.808Z,14.70
2023-03-14T01:02:21.917Z,15.73
2023-03-14T01:04:50.288Z,12.38
2023-03-14T01:07:17.901Z,12.93
2023-03-14T01:09:44.949Z,12.98
2023-03-14T01:12:11.937Z,12.25
2023-03-14T01:14:38.887Z,12.50
2023-03-14T01:17:05.988Z,9.35
2023-03-14T01:19:33.780Z,5.65
2023-03-14T01:22:00.921Z,7.30
2023-03-14T01:24:28.162Z,7.25
2023-03-14T01:26:57.748Z,7.57
2023-03-14T01:29:26.667Z,11.57
2023-03-14T01:31:54.049Z,12.43
2023-03-14T01:34:21.194Z,8.45
2023-03-14T01:36:49.363Z,5.20
2023-03-14T01:39:16.633Z,5.55
2023-03-14T01:41:43.627Z,4.20
2023-03-14T01:44:12.735Z,4.18
2023-03-14T01:46:46.627Z,4.25
2023-03-14T01:49:18.089Z,4.30
2023-03-14T01:52:17.886Z,2.78
2023-03-14T01:54:47.519Z,2.33
2023-03-14T01:57:21.796Z,4.07
2023-03-14T02:00:05.873Z,3.97
2023-03-14T02:02:44.555Z,3.90
2023-03-14T02:05:13.523Z,3.08
2023-03-14T02:08:01.251Z,6.05
2023-03-14T02:10:34.125Z,4.40
2023-03-14T02:13:04.051Z,4.15
2023-03-14T02:15:41.077Z,5.40
2023-03-14T02:18:17.551Z,4.25
2023-03-14T02:21:06.594Z,3.95
2023-03-14T02:23:53.034Z,3.80
2023-03-14T02:26:28.918Z,6.03
2023-03-14T02:28:56.238Z,4.57
2023-03-14T02:31:23.300Z,5.05
2023-03-14T02:33:50.559Z,6.57
2023-03-14T02:36:17.576Z,5.32
2023-03-14T02:39:12.212Z,5.43
2023-03-14T02:41:43.601Z,5.13
2023-03-14T02:44:10.947Z,6.72
2023-03-14T02:46:38.011Z,8.93
2023-03-14T02:49:08.702Z,3.78
2023-03-14T02:51:35.621Z,5.85
2023-03-14T02:54:02.546Z,6.68
2023-03-14T02:56:29.517Z,3.92
2023-03-14T02:58:58.704Z,4.70
2023-03-14T03:01:34.012Z,5.38
2023-03-14T03:04:00.958Z,6.05
2023-03-14T03:06:27.816Z,4.88
2023-03-14T03:08:54.753Z,4.35
2023-03-14T03:11:21.890Z,3.03
2023-03-14T03:13:48.890Z,5.30
2023-03-14T03:16:16.238Z,6.75
2023-03-14T03:18:43.552Z,3.55
2023-03-14T03:21:10.628Z,5.70
2023-03-14T03:23:37.783Z,4.00
2023-03-14T03:26:06.655Z,4.95
2023-03-14T03:28:33.541Z,3.60
2023-03-14T03:31:00.700Z,4.13
2023-03-14T03:33:27.836Z,5.38
2023-03-14T03:35:54.771Z,4.32
2023-03-14T03:38:30.341Z,2.75
2023-03-14T03:40:59.162Z,4.10
2023-03-14T03:43:28.016Z,4.13
2023-03-14T03:45:55.724Z,4.43
2023-03-14T03:48:24.196Z,6.20
2023-03-14T03:50:51.084Z,2.90
2023-03-14T03:53:32.787Z,5.90
2023-03-14T03:56:03.313Z,5.45
2023-03-14T03:58:30.429Z,4.43
2023-03-14T04:00:57.267Z,4.40
2023-03-14T04:03:24.627Z,2.47
2023-03-14T04:06:02.498Z,4.90
2023-03-14T04:08:31.579Z,5.20
2023-03-14T04:11:01.085Z,4.80
2023-03-14T04:13:46.627Z,4.80
2023-03-14T04:16:19.159Z,4.07
2023-03-14T04:18:46.482Z,5.00
2023-03-14T04:21:13.708Z,4.20
2023-03-14T04:23:47.612Z,5.93
2023-03-14T04:26:15.936Z,4.78
2023-03-14T04:28:42.773Z,6.15
2023-03-14T04:31:16.510Z,3.15
2023-03-14T04:33:45.676Z,5.43
2023-03-14T04:36:14.608Z,5.85
2023-03-14T04:38:41.927Z,5.10
2023-03-14T04:41:09.760Z,6.10
2023-03-14T04:43:37.252Z,4.63
2023-03-14T04:46:07.602Z,9.55
2023-03-14T04:48:34.757Z,7.72
2023-03-14T04:51:02.317Z,8.98
2023-03-14T04:53:33.155Z,7.15
2023-03-14T04:56:02.345Z,7.18
2023-03-14T04:58:35.884Z,8.20
2023-03-14T05:01:04.870Z,6.75
2023-03-14T05:03:52.600Z,7.85
2023-03-14T05:06:28.922Z,10.27
2023-03-14T05:09:07.904Z,8.05
2023-03-14T05:12:07.751Z,6.47
2023-03-14T05:14:51.237Z,7.13
2023-03-14T05:17:29.013Z,7.95
2023-03-14T05:20:18.446Z,7.93
2023-03-14T05:23:14.252Z,8.80
2023-03-14T05:26:04.272Z,8.40
2023-03-14T05:28:53.366Z,9.45
2023-03-14T05:31:35.211Z,7.43
2023-03-14T05:34:31.237Z,8.75
2023-03-14T05:37:18.361Z,8.48
2023-03-14T05:40:14.260Z,9.70
2023-03-14T05:43:02.830Z,6.53
2023-03-14T05:45:50.374Z,6.00
2023-03-14T05:48:39.080Z,7.85
2023-03-14T05:51:28.579Z,7.93
2023-03-14T05:54:25.005Z,6.68
2023-03-14T05:57:08.856Z,7.85
2023-03-14T05:59:52.904Z,6.97
2023-03-14T06:02:39.553Z,7.40
2023-03-14T06:05:16.849Z,11.75
2023-03-14T06:07:43.796Z,8.32
2023-03-14T06:10:11.594Z,7.35
2023-03-14T06:12:38.925Z,7.88
2023-03-14T06:15:06.480Z,11.25
2023-03-14T06:17:34.646Z,9.50
2023-03-14T06:20:10.598Z,7.40
2023-03-14T06:22:37.631Z,5.93
2023-03-14T06:25:05.550Z,6.55
2023-03-14T06:27:33.228Z,6.70
2023-03-14T06:30:00.232Z,11.18
2023-03-14T06:32:29.515Z,10.73
2023-03-14T06:35:02.029Z,7.75
2023-03-14T06:37:30.885Z,10.05
2023-03-14T06:39:58.318Z,6.95
2023-03-14T06:42:47.191Z,9.05
2023-03-14T06:45:16.277Z,6.75
2023-03-14T06:47:43.285Z,8.35
2023-03-14T06:50:11.321Z,10.77
2023-03-14T06:52:42.168Z,7.18
2023-03-14T06:55:10.205Z,8.35
2023-03-14T06:57:37.821Z,8.43
2023-03-14T07:00:05.912Z,7.35
2023-03-14T07:02:42.768Z,9.13
2023-03-14T07:05:21.601Z,7.00
2023-03-14T07:07:48.584Z,9.68
2023-03-14T07:10:16.656Z,7.93
2023-03-14T07:12:43.664Z,7.63
2023-03-14T07:15:18.738Z,10.52
2023-03-14T07:17:49.665Z,8.93
2023-03-14T07:20:18.412Z,8.40
2023-03-14T07:22:49.282Z,8.45
2023-03-14T07:25:17.888Z,7.55
2023-03-14T07:27:45.800Z,7.45
2023-03-14T07:30:13.488Z,6.32
2023-03-14T07:32:40.645Z,8.57
2023-03-14T07:35:08.502Z,8.80
2023-03-14T07:37:38.112Z,9.25
2023-03-14T07:40:08.123Z,6.45
2023-03-14T07:42:36.886Z,8.65
2023-03-14T07:45:18.286Z,10.48
2023-03-14T07:47:45.541Z,9.60
2023-03-14T07:50:12.574Z,7.68
2023-03-14T07:52:39.582Z,7.55
2023-03-14T07:55:06.952Z,8.77
2023-03-14T07:57:33.831Z,11.05
2023-03-14T08:00:03.438Z,8.93
2023-03-14T08:02:40.073Z,4.55
2023-03-14T08:05:07.345Z,8.05
2023-03-14T08:07:34.319Z,7.15
2023-03-14T08:10:01.131Z,5.95
2023-03-14T08:12:28.045Z,5.88
2023-03-14T08:14:54.940Z,6.55
2023-03-14T08:17:21.811Z,6.40
2023-03-14T08:19:48.667Z,6.55
2023-03-14T08:22:16.316Z,6.60
2023-03-14T08:24:44.643Z,6.07
2023-03-14T08:27:11.586Z,4.78
2023-03-14T08:29:38.466Z,5.53
2023-03-14T08:32:05.567Z,4.95
2023-03-14T08:34:34.434Z,3.38
2023-03-14T08:37:02.726Z,3.47
2023-03-14T08:39:31.470Z,2.95
2023-03-14T08:41:58.376Z,4.90
2023-03-14T08:44:25.333Z,3.78
2023-03-14T08:46:52.331Z,4.05
2023-03-14T08:49:19.557Z,4.63
2023-03-14T08:51:46.579Z,4.57
2023-03-14T08:54:13.650Z,4.05
2023-03-14T08:56:41.103Z,4.57
2023-03-14T08:59:12.031Z,3.58
2023-03-14T09:01:38.898Z,9.45
2023-03-14T09:04:05.885Z,4.47
2023-03-14T09:06:32.781Z,4.13
2023-03-14T09:08:59.596Z,3.95
2023-03-14T09:11:26.504Z,5.10
2023-03-14T09:13:53.330Z,3.60
2023-03-14T09:16:20.138Z,3.80
2023-03-14T09:18:47.019Z,3.72
2023-03-14T09:21:13.890Z,2.97
2023-03-14T09:23:41.280Z,3.55
2023-03-14T09:26:08.137Z,4.13
2023-03-14T09:28:34.952Z,2.92
2023-03-14T09:31:09.318Z,3.30
2023-03-14T09:33:36.749Z,4.30
2023-03-14T09:36:03.833Z,4.57
2023-03-14T09:38:30.796Z,3.72
2023-03-14T09:41:00.354Z,5.28
2023-03-14T09:43:28.250Z,4.70
2023-03-14T09:45:55.074Z,4.68
2023-03-14T09:48:24.957Z,3.60
2023-03-14T09:50:53.590Z,6.70
2023-03-14T09:53:23.661Z,9.82
2023-03-14T09:55:51.198Z,9.80
2023-03-14T09:58:20.550Z,6.63
2023-03-14T10:00:47.444Z,7.45
2023-03-14T10:03:14.325Z,6.07
2023-03-14T10:05:44.277Z,7.97
2023-03-14T10:08:11.958Z,7.75
2023-03-14T10:10:38.800Z,7.15
2023-03-14T10:13:16.529Z,8.45
2023-03-14T10:15:43.530Z,7.85
2023-03-14T10:18:13.847Z,6.70
2023-03-14T10:20:43.394Z,10.02
2023-03-14T10:23:13.753Z,6.30
2023-03-14T10:25:45.220Z,8.15
2023-03-14T10:28:24.654Z,6.50
2023-03-14T10:30:51.523Z,14.07
2023-03-14T10:33:22.421Z,9.75
2023-03-14T10:36:16.249Z,10.00
2023-03-14T10:38:43.787Z,7.07
2023-03-14T10:41:26.492Z,6.28
2023-03-14T10:43:58.542Z,12.48
2023-03-14T10:46:25.947Z,6.97
2023-03-14T10:49:24.159Z,11.63
2023-03-14T10:51:51.070Z,10.65
2023-03-14T10:54:22.322Z,7.63
2023-03-14T10:56:59.763Z,8.90
2023-03-14T10:59:26.829Z,6.00
2023-03-14T11:01:57.109Z,9.05
2023-03-14T11:04:36.985Z,5.28
2023-03-14T11:07:32.808Z,7.65
2023-03-14T11:10:18.026Z,5.97
2023-03-14T11:12:56.251Z,8.13
2023-03-14T11:15:37.262Z,7.65
2023-03-14T11:18:29.227Z,4.72
2023-03-14T11:21:10.430Z,5.28
2023-03-14T11:23:55.752Z,4.00
2023-03-14T11:26:31.626Z,7.45
2023-03-14T11:29:00.000Z,7.22
2023-03-14T11:31:31.248Z,6.25
2023-03-14T11:34:16.726Z,7.20
2023-03-14T11:37:04.326Z,6.60
2023-03-14T11:39:39.619Z,8.20
2023-03-14T11:42:08.626Z,11.90
2023-03-14T11:44:39.450Z,11.80
2023-03-14T11:47:21.068Z,9.15
2023-03-14T11:50:16.706Z,7.05
2023-03-14T11:52:56.102Z,7.65
2023-03-14T11:55:31.646Z,9.68
2023-03-14T11:58:11.959Z,7.72
2023-03-14T12:00:39.478Z,9.68
2023-03-14T12:03:31.385Z,8.75
2023-03-14T12:06:23.194Z,9.23
2023-03-14T12:08:58.737Z,9.98
2023-03-14T12:11:53.755Z,10.15
2023-03-14T12:14:28.417Z,7.53
2023-03-14T12:16:59.250Z,11.63
2023-03-14T12:19:30.373Z,9.80
2023-03-14T12:22:15.825Z,10.07
2023-03-14T12:24:56.864Z,9.75
2023-03-14T12:27:55.868Z,9.43
2023-03-14T12:30:35.819Z,9.35
2023-03-14T12:33:18.208Z,8.20
2023-03-14T12:35:50.564Z,8.88
2023-03-14T12:38:37.775Z,9.88
2023-03-14T12:41:07.712Z,8.30
2023-03-14T12:43:35.215Z,9.20
2023-03-14T12:46:21.510Z,11.57
2023-03-14T12:49:05.133Z,10.07
2023-03-14T12:51:39.769Z,7.13
2023-03-14T12:54:31.541Z,12.32
2023-03-14T12:57:21.146Z,8.05
2023-03-14T12:59:59.854Z,10.13
2023-03-14T13:02:30.815Z,9.45
2023-03-14T13:05:06.488Z,11.13
2023-03-14T13:07:40.420Z,13.25
2023-03-14T13:12:52.575Z,9.27
2023-03-14T13:15:22.908Z,7.13
2023-03-14T13:17:50.285Z,6.70
2023-03-14T13:20:29.048Z,8.10
2023-03-14T13:22:55.940Z,6.63
2023-03-14T13:25:23.679Z,7.00
2023-03-14T13:27:55.593Z,7.60
2023-03-14T13:30:28.532Z,5.70
2023-03-14T13:32:56.007Z,6.82
2023-03-14T13:35:24.536Z,5.93
2023-03-14T13:38:11.453Z,5.15
2023-03-14T13:40:39.217Z,6.25
2023-03-14T13:43:28.025Z,9.50
2023-03-14T13:46:17.709Z,8.18
2023-03-14T13:48:46.273Z,6.10
2023-03-14T13:51:14.584Z,6.63
2023-03-14T13:53:48.335Z,6.32
2023-03-14T13:56:15.378Z,6.15
2023-03-14T13:58:45.454Z,8.35
2023-03-14T14:01:22.636Z,6.40
2023-03-14T14:03:52.537Z,5.90
2023-03-14T14:06:39.588Z,7.10
2023-03-14T14:09:29.295Z,6.13
2023-03-14T14:12:14.423Z,8.90
2023-03-14T14:14:51.084Z,6.40
2023-03-14T14:17:20.198Z,6.68
2023-03-14T14:19:47.244Z,7.75
2023-03-14T14:22:14.153Z,8.02
2023-03-14T14:24:41.199Z,5.82
2023-03-14T14:27:16.728Z,6.00
2023-03-14T14:29:43.899Z,5.57
2023-03-14T14:32:13.745Z,7.35
2023-03-14T14:34:50.632Z,7.25
2023-03-14T14:37:20.444Z,6.10
2023-03-14T14:39:47.285Z,8.73
2023-03-14T14:42:16.626Z,8.00
2023-03-14T14:44:43.708Z,6.72
2023-03-14T14:47:13.946Z,7.20
2023-03-14T14:49:40.817Z,11.68
2023-03-14T14:52:14.541Z,6.28
2023-03-14T14:54:45.339Z,6.85
2023-03-14T14:57:25.779Z,7.47
2023-03-14T14:59:55.778Z,8.10
2023-03-14T15:02:31.614Z,9.00
2023-03-14T15:04:58.536Z,6.35
2023-03-14T15:07:27.819Z,7.35
2023-03-14T15:09:55.328Z,7.18
2023-03-14T15:12:22.495Z,6.82
2023-03-14T15:14:49.431Z,5.72
2023-03-14T15:17:16.375Z,7.28
2023-03-14T15:19:43.551Z,7.18
2023-03-14T15:22:15.240Z,5.57
2023-03-14T15:24:42.898Z,8.15
2023-03-14T15:27:15.136Z,5.57
2023-03-14T15:29:42.329Z,7.28
2023-03-14T15:32:19.220Z,13.27
2023-03-14T15:34:46.245Z,9.77
2023-03-14T15:37:14.085Z,5.95
2023-03-14T15:39:44.423Z,7.82
2023-03-14T15:42:19.021Z,7.03
2023-03-14T15:44:49.085Z,6.40
2023-03-14T15:47:16.170Z,7.22
2023-03-14T15:49:43.569Z,7.05
2023-03-14T15:52:10.644Z,6.68
2023-03-14T15:54:37.604Z,4.90
2023-03-14T15:57:04.752Z,6.68
2023-03-14T15:59:32.066Z,8.52
2023-03-14T16:01:59.006Z,4.93
2023-03-14T16:04:26.018Z,8.73
2023-03-14T16:06:53.236Z,5.38
2023-03-14T16:09:20.383Z,7.50
2023-03-14T16:11:47.521Z,6.78
2023-03-14T16:14:14.411Z,5.75
2023-03-14T16:16:41.284Z,6.10
2023-03-14T16:19:08.473Z,6.20
2023-03-14T16:21:35.450Z,8.80
2023-03-14T16:24:03.315Z,7.28
2023-03-14T16:26:30.328Z,8.23
2023-03-14T16:28:57.211Z,4.78
2023-03-14T16:31:26.044Z,9.45
2023-03-14T16:33:53.086Z,7.20
2023-03-14T16:36:20.061Z,10.07
2023-03-14T16:38:47.020Z,9.52
2023-03-14T16:41:15.994Z,6.55
2023-03-14T16:43:43.238Z,4.65
2023-03-14T16:46:16.823Z,6.15
2023-03-14T16:48:45.009Z,4.68
2023-03-14T16:51:12.193Z,5.18
2023-03-14T16:53:39.341Z,4.07
2023-03-14T16:56:08.113Z,6.18
2023-03-14T16:58:35.895Z,6.57
2023-03-14T17:01:10.527Z,5.57
2023-03-14T17:03:39.402Z,6.95
2023-03-14T17:06:06.784Z,5.15
2023-03-14T17:08:33.965Z,7.07
2023-03-14T17:11:01.000Z,7.25
2023-03-14T17:13:28.034Z,4.63
2023-03-14T17:15:55.893Z,6.55
2023-03-14T17:18:23.988Z,7.75
2023-03-14T17:20:53.923Z,6.10
2023-03-14T17:23:21.221Z,7.60
2023-03-14T17:25:48.476Z,7.85
2023-03-14T17:28:18.732Z,5.93
2023-03-14T17:30:45.986Z,5.15
2023-03-14T17:33:15.687Z,4.95
2023-03-14T17:35:43.970Z,6.72
2023-03-14T17:38:10.988Z,7.10
2023-03-14T17:40:38.158Z,7.63
2023-03-14T17:43:05.776Z,5.78
2023-03-14T17:45:33.720Z,6.45
2023-03-14T17:48:00.785Z,5.03
2023-03-14T17:50:30.614Z,7.45
2023-03-14T17:52:57.637Z,9.40
2023-03-14T17:55:26.941Z,6.03
2023-03-14T17:57:54.033Z,5.18
2023-03-14T18:00:23.239Z,5.75
2023-03-14T18:02:51.036Z,4.70
2023-03-14T18:05:20.912Z,6.60
2023-03-14T18:07:47.760Z,4.30
2023-03-14T18:10:14.808Z,4.13
2023-03-14T18:12:42.477Z,5.32
2023-03-14T18:15:09.976Z,6.18
2023-03-14T18:17:36.877Z,5.50
2023-03-14T18:20:05.257Z,5.28
2023-03-14T18:22:33.360Z,6.75
2023-03-14T18:25:00.698Z,7.07
2023-03-14T18:27:27.546Z,4.78
2023-03-14T18:29:54.463Z,5.20
2023-03-14T18:32:21.394Z,5.03
2023-03-14T18:34:48.804Z,8.27
2023-03-14T18:37:15.651Z,6.88
2023-03-14T18:39:42.586Z,5.63
2023-03-14T18:42:09.429Z,4.88
2023-03-14T18:44:36.524Z,6.55
2023-03-14T18:47:03.629Z,6.22
2023-03-14T18:49:30.592Z,4.47
2023-03-14T18:51:57.758Z,6.68
2023-03-14T18:54:24.689Z,7.30
2023-03-14T18:56:51.896Z,6.63
2023-03-14T18:59:19.920Z,11.27
2023-03-14T19:01:46.929Z,7.32
2023-03-14T19:04:14.054Z,6.05
2023-03-14T19:06:41.736Z,7.57
2023-03-14T19:09:11.680Z,6.00
2023-03-14T19:11:38.552Z,7.68
2023-03-14T19:14:05.309Z,7.57
2023-03-14T19:16:32.395Z,7.75
2023-03-14T19:18:59.382Z,7.07
2023-03-14T19:21:28.382Z,6.75
2023-03-14T19:23:55.267Z,8.30
2023-03-14T19:26:22.358Z,6.07
2023-03-14T19:28:49.546Z,9.85
2023-03-14T19:31:16.572Z,7.32
2023-03-14T19:33:43.508Z,5.95
2023-03-14T19:36:22.467Z,6.00
2023-03-14T19:38:49.951Z,6.57
2023-03-14T19:41:18.888Z,6.78
2023-03-14T19:43:48.857Z,5.60
2023-03-14T19:46:15.907Z,5.63
2023-03-14T19:48:45.544Z,5.63
2023-03-14T19:51:13.617Z,5.75
2023-03-14T19:53:43.174Z,8.80
2023-03-14T19:56:10.930Z,8.85
2023-03-14T19:58:38.780Z,8.38
2023-03-14T20:01:07.735Z,8.80
2023-03-14T20:03:36.568Z,8.70
2023-03-14T20:06:11.864Z,14.85
2023-03-14T20:08:39.388Z,10.82
2023-03-14T20:11:06.947Z,12.73
2023-03-14T20:13:33.936Z,10.45
2023-03-14T20:16:04.021Z,8.93
2023-03-14T20:18:31.353Z,12.18
2023-03-14T20:20:58.387Z,7.47
2023-03-14T20:23:26.242Z,7.38
2023-03-14T20:25:58.513Z,9.43
2023-03-14T20:28:25.881Z,12.98
2023-03-14T20:30:52.926Z,10.85
2023-03-14T20:33:22.934Z,11.02
2023-03-14T20:35:57.891Z,9.95
2023-03-14T20:38:26.876Z,10.55
2023-03-14T20:40:59.754Z,12.30
2023-03-14T20:43:27.794Z,13.88
2023-03-14T20:45:55.684Z,13.20
2023-03-14T20:48:22.974Z,10.20
2023-03-14T20:50:50.040Z,12.23
2023-03-14T20:53:17.418Z,10.45
2023-03-14T20:55:44.331Z,9.68
2023-03-14T20:58:14.177Z,9.18
2023-03-14T21:00:41.729Z,10.73
2023-03-14T21:03:10.653Z,8.40
2023-03-14T21:05:37.610Z,6.50
2023-03-14T21:08:04.541Z,7.82
2023-03-14T21:10:31.390Z,8.13
2023-03-14T21:12:58.661Z,7.53
2023-03-14T21:15:25.536Z,7.40
2023-03-14T21:17:54.009Z,8.57
2023-03-14T21:20:20.979Z,8.30
2023-03-14T21:22:50.430Z,18.15
2023-03-14T21:25:17.385Z,7.72
2023-03-14T21:27:44.409Z,9.57
2023-03-14T21:30:11.999Z,10.90
2023-03-14T21:32:38.968Z,9.07
2023-03-14T21:35:06.326Z,7.80
2023-03-14T21:37:33.148Z,8.35
2023-03-14T21:40:00.133Z,9.73
2023-03-14T21:42:27.320Z,7.25
2023-03-14T21:44:54.321Z,8.27
2023-03-14T21:47:23.576Z,7.47
2023-03-14T21:49:51.393Z,10.23
2023-03-14T21:52:18.369Z,10.43
2023-03-14T21:54:45.369Z,11.05
2023-03-14T21:57:14.262Z,11.30
2023-03-14T21:59:43.462Z,6.22
2023-03-14T22:02:17.796Z,5.47
2023-03-14T22:04:44.836Z,6.53
2023-03-14T22:07:13.218Z,8.77
2023-03-14T22:09:41.297Z,6.38
2023-03-14T22:12:08.404Z,8.63
2023-03-14T22:14:35.265Z,4.57
2023-03-14T22:17:03.994Z,5.18
2023-03-14T22:19:32.411Z,6.80
2023-03-14T22:21:59.389Z,5.93
2023-03-14T22:24:26.892Z,6.22
2023-03-14T22:26:54.662Z,5.18
2023-03-14T22:29:22.313Z,5.72
2023-03-14T22:31:49.240Z,8.07
2023-03-14T22:34:16.209Z,6.68
2023-03-14T22:36:43.022Z,5.63
2023-03-14T22:39:09.863Z,7.72
2023-03-14T22:41:36.926Z,6.25
2023-03-14T22:44:03.904Z,8.02
2023-03-14T22:46:33.436Z,5.97
2023-03-14T22:49:00.608Z,7.75
2023-03-14T22:51:27.496Z,7.45
2023-03-14T22:53:54.831Z,6.70
2023-03-14T22:56:21.700Z,6.50
2023-03-14T22:58:48.602Z,7.88
2023-03-14T23:01:15.619Z,7.25
2023-03-14T23:03:42.609Z,7.70
2023-03-14T23:06:09.561Z,7.03
2023-03-14T23:08:38.081Z,5.85
2023-03-14T23:11:06.240Z,6.22
2023-03-14T23:13:33.544Z,7.80
2023-03-14T23:16:01.352Z,7.47
2023-03-14T23:18:28.806Z,5.82
2023-03-14T23:21:06.792Z,5.72
2023-03-14T23:23:34.920Z,6.45
2023-03-14T23:26:06.169Z,7.28
2023-03-14T23:28:33.072Z,7.22
2023-03-14T23:31:00.171Z,5.43
2023-03-14T23:33:27.925Z,4.75
2023-03-14T23:35:54.859Z,5.78
2023-03-14T23:38:24.509Z,6.72
2023-03-14T23:40:54.263Z,7.88
2023-03-14T23:43:21.510Z,5.88
2023-03-14T23:45:50.019Z,5.25
2023-03-14T23:48:16.887Z,6.18
2023-03-14T23:50:43.970Z,6.20
2023-03-14T23:53:10.991Z,7.18
2023-03-14T23:55:38.432Z,8.20
2023-03-14T23:58:05.330Z,6.28
